Flight Track Log - Related Links

Times and Time Zones

All times are in EDT time to prevent confusion due to time zone crossing. See the N40NR flight status page for this flight to view local times or setup timezone preferences in your user account.

Time Position Orientation Groundspeed Altitude Reporting Facility
EDT Latitude Longitude Course Direction KTS MPH feet Rate Location/Type
Fri 05:33:19 PM 37.4444 -76.0681 29° Northeast 161 185 7,600  Level Washington Center
Fri 05:34:17 PM 37.4800 -76.0394 33° Northeast 156 180 7,600 50 Level Washington Center
Fri 05:35:18 PM 37.5156 -76.0133 30° Northeast 156 180 7,700 49 Climbing Washington Center
Fri 05:36:19 PM 37.5511 -75.9900 27° Northeast 151 174 7,700  Level Washington Center
Fri 05:37:17 PM 37.5867 -75.9667 27° Northeast 145 167 7,700  Level Washington Center
Fri 05:38:00 PM 37.7452 -75.8438 29° Northeast  Level Estimated
Fri 05:38:18 PM 37.6219 -75.9378 33° Northeast 145 167 7,700  Level Washington Center
Fri 05:39:18 PM 37.6575 -75.9119 30° Northeast 140 161 7,700  Level Washington Center
Fri 05:40:19 PM 37.6931 -75.8883 28° Northeast 140 161 7,700  Level Washington Center
Fri 05:41:17 PM 37.7286 -75.8597 32° Northeast 140 161 7,700  Level Washington Center
Fri 05:42:17 PM 37.7661 -75.8361 26° Northeast 140 161 7,700  Level Washington Center
Fri 05:43:19 PM 37.7997 -75.8047 36° Northeast 140 161 7,700  Level Washington Center
Fri 05:44:17 PM 37.8372 -75.7811 26° Northeast 140 161 7,700  Level Washington Center
Fri 05:45:17 PM 37.8728 -75.7550 30° Northeast 140 161 7,700  Level Washington Center
Fri 05:46:17 PM 37.9061 -75.7286 32° Northeast 140 161 7,700 -49 Level Washington Center
Fri 05:47:19 PM 37.9436 -75.7050 26° Northeast 140 161 7,600  Descending Washington Center
Fri 05:48:20 PM 37.9792 -75.6839 25° Northeast 140 161 7,700 51 Climbing Washington Center
Fri 05:49:17 PM 38.0147 -75.6575 30° Northeast 140 161 7,700  Level Washington Center
Fri 05:50:18 PM 38.0439 -75.6314 35° Northeast 145 167 7,700 -49 Level Washington Center
Fri 05:51:19 PM 38.0772 -75.5892 45° Northeast 145 167 7,600 -49 Descending Washington Center
Fri 05:52:20 PM 38.1106 -75.5600 35° Northeast 150 173 7,600  Level Washington Center
Fri 05:53:17 PM 38.1461 -75.5336 30° Northeast 150 173 7,600  Level Washington Center
Fri 05:54:17 PM 38.1836 -75.5100 26° Northeast 145 167 7,600  Level Washington Center
Fri 05:55:18 PM 38.2211 -75.4939 19° North 140 161 7,600 49 Level Washington Center
Fri 05:56:19 PM 38.2647 -75.4728 21° North 135 155 7,700 303 Climbing Washington Center
Fri 05:57:17 PM 38.2961 -75.4436 36° Northeast 135 155 8,200 407 Climbing Washington Center
Fri 05:58:17 PM 38.3294 -75.4197 29° Northeast 130 150 8,500 298 Climbing Washington Center
Fri 05:59:18 PM 38.3606 -75.3983 28° Northeast 130 150 8,800 246 Climbing Washington Center
Fri 06:00:19 PM 38.3919 -75.3772 28° Northeast 130 150 9,000 300 Climbing Washington Center
Fri 06:01:18 PM 38.4211 -75.3533 33° Northeast 130 150 9,400 252 Climbing Washington Center
Fri 06:02:18 PM 38.4522 -75.3292 31° Northeast 125 144 9,500 99 Climbing Washington Center
Fri 06:03:19 PM 38.4875 -75.3078 25° Northeast 125 144 9,600 50 Climbing Washington Center
Fri 06:04:19 PM 38.5208 -75.2786 34° Northeast 130 150 9,600  Level Washington Center
Fri 06:05:19 PM 38.5564 -75.2519 30° Northeast 140 161 9,600  Level Washington Center
Fri 06:06:17 PM 38.5917 -75.2278 28° Northeast 140 161 9,600  Level Washington Center
Fri 06:07:18 PM 38.6250 -75.2011 32° Northeast 140 161 9,600  Level Washington Center
Fri 06:08:19 PM 38.6603 -75.1769 28° Northeast 140 161 9,600  Level Washington Center
Fri 06:09:19 PM 38.6956 -75.1500 31° Northeast 140 161 9,600  Level Washington Center
Fri 06:10:19 PM 38.7308 -75.1206 33° Northeast 140 161 9,600  Level Washington Center
Fri 06:11:17 PM 38.7664 -75.0964 28° Northeast 140 161 9,600  Level Washington Center
Fri 06:12:17 PM 38.8058 -75.0694 28° Northeast 140 161 9,600  Level Washington Center
Fri 06:13:18 PM 38.8389 -75.0425 32° Northeast 140 161 9,600  Level Washington Center
Fri 06:14:19 PM 38.8744 -75.0131 33° Northeast 140 161 9,600  Level Washington Center
Fri 06:15:18 PM 38.9117 -74.9861 29° Northeast 140 161 9,600  Level Washington Center
Fri 06:16:18 PM 38.9492 -74.9617 27° Northeast 140 161 9,600  Level Washington Center
Fri 06:17:18 PM 38.9844 -74.9347 31° Northeast 140 161 9,600  Level Washington Center
Fri 06:18:18 PM 39.0217 -74.9050 32° Northeast 140 161 9,600  Level Washington Center
Fri 06:19:19 PM 39.0569 -74.8778 31° Northeast 140 161 9,600  Level Washington Center
Fri 06:20:19 PM 39.0922 -74.8508 31° Northeast 140 161 9,600  Level Washington Center
Fri 06:21:19 PM 39.1317 -74.8208 31° Northeast 140 161 9,600  Level Washington Center
Fri 06:22:17 PM 39.1669 -74.7964 28° Northeast 140 161 9,600  Level Washington Center
Fri 06:23:17 PM 39.2042 -74.7667 32° Northeast 140 161 9,600  Level Washington Center
Fri 06:24:18 PM 39.2394 -74.7394 31° Northeast 140 161 9,600  Level Washington Center
Fri 06:25:18 PM 39.2706 -74.6989 45° Northeast 146 168 9,600  Level Washington Center
Fri 06:26:19 PM 39.3014 -74.6583 45° Northeast 157 181 9,600  Level Washington Center
Fri 06:27:19 PM 39.3325 -74.6175 45° Northeast 157 181 9,600  Level Washington Center
Fri 06:28:19 PM 39.3633 -74.5769 45° Northeast 157 181 9,600  Level Washington Center
Fri 06:30:18 PM 39.4231 -74.4958 46° Northeast 148 170 9,600  Level New York Center
Fri 06:31:18 PM 39.4514 -74.4597 45° Northeast 156 180 9,600  Level New York Center
Fri 06:32:16 PM 39.4861 -74.4131 46° Northeast 156 180 9,600  Level New York Center
Fri 06:33:16 PM 39.5122 -74.3819 43° Northeast 156 180 9,600  Level New York Center
Fri 06:34:17 PM 39.5511 -74.3383 41° Northeast 150 173 9,600  Level New York Center
Fri 06:35:17 PM 39.5831 -74.3103 34° Northeast 144 166 9,600  Level New York Center
Fri 06:36:18 PM 39.6175 -74.2797 34° Northeast 144 166 9,600  Level New York Center
Fri 06:37:15 PM 39.6600 -74.2519 27° Northeast 144 166 9,600  Level New York Center
Fri 06:38:16 PM 39.6961 -74.2297 25° Northeast 144 166 9,600  Level New York Center
Fri 06:39:17 PM 39.7342 -74.2100 22° Northeast 144 166 9,600  Level New York Center
Fri 06:40:17 PM 39.7703 -74.1900 23° Northeast 144 166 9,600  Level New York Center
Fri 06:41:18 PM 39.8125 -74.1678 22° Northeast 144 166 9,600  Level New York Center
Fri 06:42:18 PM 39.8506 -74.1453 24° Northeast 149 171 9,600  Level New York Center
Fri 06:43:16 PM 39.8886 -74.1283 19° North 149 171 9,600  Level New York Center
Fri 06:44:17 PM 39.9225 -74.1108 22° Northeast 149 171 9,600  Level New York Center
Fri 06:45:16 PM 39.9628 -74.0911 21° North 149 171 9,600  Level New York Center
Fri 06:46:16 PM 40.0069 -74.0717 19° North 149 171 9,600  Level New York Center
Fri 06:47:17 PM 40.0450 -74.0517 22° Northeast 149 171 9,600  Level New York Center
Fri 06:48:18 PM 40.0831 -74.0344 19° North 149 171 9,600  Level New York Center
Fri 06:49:19 PM 40.1169 -74.0172 21° North 144 166 9,600  Level New York Center
Fri 06:50:16 PM 40.1592 -73.9947 22° Northeast 144 166 9,600  Level New York Center
Fri 06:51:17 PM 40.1972 -73.9775 19° North 144 166 9,600  Level New York Center
Fri 06:52:18 PM 40.2372 -73.9603 18° North 150 173 9,600  Level New York Center
Fri 06:53:16 PM 40.2753 -73.9403 22° Northeast 150 173 9,600  Level New York Center
Fri 06:54:17 PM 40.3133 -73.9203 22° Northeast 145 167 9,600  Level New York Center
Fri 06:55:17 PM 40.3536 -73.9003 21° North 145 167 9,600  Level New York Center
Fri 06:56:15 PM 40.3833 -73.8667 41° Northeast 149 171 9,600  Level New York TRACON
Fri 06:57:16 PM 40.4167 -73.8333 37° Northeast 152 175 9,600  Level New York TRACON
Fri 06:58:16 PM 40.4500 -73.8000 37° Northeast 151 174 9,600  Level New York TRACON
Fri 06:59:21 PM 40.5000 -73.7667 27° Northeast 151 174 9,600  Level New York TRACON
Fri 07:00:21 PM 40.5333 -73.7333 37° Northeast 151 174 9,600  Level New York TRACON
Fri 07:01:22 PM 40.5667 -73.7000 37° Northeast 153 176 9,600  Level New York TRACON
Fri 07:02:22 PM 40.6000 -73.6833 21° North 156 180 9,600  Level New York TRACON
Fri 07:03:22 PM 40.6333 -73.6500 37° Northeast 153 176 9,600  Level New York TRACON
Fri 07:04:27 PM 40.6667 -73.6167 37° Northeast 149 171 9,600  Level New York TRACON
Fri 07:05:22 PM 40.7000 -73.6000 21° North 151 174 9,600  Level New York TRACON
Fri 07:06:22 PM 40.7333 -73.5667 37° Northeast 149 171 9,600  Level New York TRACON
Fri 07:07:22 PM 40.7833 -73.5333 27° Northeast 147 169 9,600  Level New York TRACON
Fri 07:08:21 PM 40.8167 -73.5167 21° North 147 169 9,600  Level New York TRACON
Fri 07:09:22 PM 40.8500 -73.4833 37° Northeast 145 167 9,600  Level New York TRACON
Fri 07:10:22 PM 40.8833 -73.4500 37° Northeast 148 170 9,600  Level New York TRACON
Fri 07:11:22 PM 40.9167 -73.4333 21° North 149 171 9,600  Level New York TRACON
Fri 07:12:22 PM 40.9500 -73.4000 37° Northeast 148 170 9,600  Level New York TRACON
Fri 07:13:22 PM 40.9833 -73.3667 37° Northeast 151 174 9,600  Level New York TRACON
Fri 07:14:22 PM 41.0167 -73.3333 37° Northeast 154 177 9,600  Level New York TRACON
Fri 07:15:16 PM 41.0500 -73.3167 21° North 150 173 9,600  Level New York TRACON
Fri 07:16:16 PM 41.0833 -73.2833 37° Northeast 154 177 9,600  Level New York TRACON
Fri 07:17:16 PM 41.1333 -73.2500 27° Northeast 155 178 9,600  Level New York TRACON
Fri 07:18:16 PM 41.1667 -73.2333 21° North 154 177 9,600  Level New York TRACON
Fri 07:19:16 PM 41.2000 -73.2000 37° Northeast 153 176 9,600  Level New York TRACON
Fri 07:20:16 PM 41.2333 -73.1667 37° Northeast 156 180 9,600 -157 Level New York TRACON
Fri 07:22:00 PM 41.2804 -73.1020 46° Northeast  Level FlightAware Approximate
Fri 07:29:00 PM 41.5023 -72.8804 30° Northeast  Level FlightAware Approximate
Fri 07:30:00 PM 41.5362 -72.8546 30° Northeast  Level FlightAware Approximate
Fri 07:31:00 PM 41.5701 -72.8287 30° Northeast  Level FlightAware Approximate
Fri 07:32:00 PM 41.6040 -72.8028 30° Northeast  Level FlightAware Approximate
Fri 07:32:01 PM 41.6850 -72.8014 31° Northeast 153 176 7,600  Level Boston Center
Fri 07:32:56 PM 41.7164 -72.7739 33° Northeast 161 185 7,300 -310 Descending Boston Center
Fri 07:33:00 PM 41.6380 -72.7769 30° Northeast  Level FlightAware Approximate
Fri 07:33:57 PM 41.7539 -72.7406 34° Northeast 165 190 7,000  Level Boston Center
Fri 07:34:00 PM 41.6719 -72.7510 30° Northeast  Level FlightAware Approximate
Fri 07:34:57 PM 41.8061 -72.7408 360° North 177 204 6,600  Level Boston Center
Fri 07:35:00 PM 41.7058 -72.7250 30° Northeast  Level FlightAware Approximate
Fri 07:35:58 PM 41.8497 -72.7300 10° North 169 194 6,300  Level Boston Center
Fri 07:36:00 PM 41.7393 -72.6981 31° Northeast  Level FlightAware Approximate
Fri 07:36:58 PM 41.8894 -72.6939 34° Northeast 169 194 5,800  Level Boston Center
Fri 07:37:00 PM 41.7726 -72.6708 31° Northeast  Level FlightAware Approximate
Fri 07:37:59 PM 41.9231 -72.6578 39° Northeast 162 186 5,600  Level Boston Center
Fri 07:39:00 PM 41.9564 -72.6214 39° Northeast 154 177 5,600  Level Boston Center
Fri 07:40:00 PM 41.9856 -72.5797 47° Northeast 150 173 5,600  Level Boston Center
Fri 07:40:55 PM 42.0128 -72.5436 45° Northeast 148 170 5,600  Level Boston Center
Fri 07:41:56 PM 42.0397 -72.5044 47° Northeast 145 167 5,600  Level Boston Center
Fri 07:42:57 PM 42.0731 -72.4708 37° Northeast 142 163 5,600  Level Boston Center
Fri 07:43:57 PM 42.1067 -72.4456 29° Northeast 139 160 5,600  Level Boston Center
Fri 07:44:58 PM 42.1419 -72.4178 30° Northeast 144 166 5,600  Level Boston Center
Fri 07:45:59 PM 42.1775 -72.3897 30° Northeast 146 168 5,600  Level Boston Center
Fri 07:46:59 PM 42.2108 -72.3589 34° Northeast 148 170 5,600  Level Boston Center
Fri 07:48:00 PM 42.2483 -72.3278 32° Northeast 152 175 5,600  Level Boston Center
Fri 07:49:01 PM 42.2836 -72.2969 33° Northeast 152 175 5,600  Level Boston Center
Fri 07:50:01 PM 42.3211 -72.2661 31° Northeast 155 178 5,600  Level Boston Center
Fri 07:51:02 PM 42.3606 -72.2350 30° Northeast 157 181 5,600  Level Boston Center
Fri 07:52:28 PM 42.4042 -72.1897 37° Northeast 139 160 5,600  Level Boston Center
Fri 07:53:28 PM 42.4481 -72.1558 30° Northeast 144 166 5,600  Level Boston Center
Fri 07:54:28 PM 42.4875 -72.1219 32° Northeast 144 166 5,600 -200 Level Boston Center
Fri 07:55:28 PM 42.5208 -72.0908 35° Northeast 151 174 5,200 -400 Descending Boston Center
Fri 07:56:28 PM 42.5664 -72.0539 31° Northeast 156 180 4,800 -300 Descending Boston Center
Fri 07:57:28 PM 42.6017 -72.0228 33° Northeast 166 191 4,600 -350 Descending Boston Center
Fri 07:58:28 PM 42.6456 -71.9856 32° Northeast 161 185 4,100 -350 Descending Boston Center
Fri 07:59:28 PM 42.6808 -71.9544 33° Northeast 161 185 3,900 -250 Descending Boston Center
Fri 08:00:28 PM 42.7203 -71.9200 33° Northeast 161 185 3,600 -150 Descending Boston Center
Fri 08:01:28 PM 42.7533 -71.8917 32° Northeast 161 185 3,600  Level Boston Center
Fri 08:02:28 PM 42.7908 -71.8600 32° Northeast 155 178 3,600  Level Boston Center
Fri 08:03:28 PM 42.8219 -71.8342 31° Northeast 142 163 3,600  Level Boston Center
Fri 08:04:28 PM 42.8592 -71.8028 32° Northeast 142 163 3,600  Level Boston Center
Fri 08:05:28 PM 42.8925 -71.7742 32° Northeast 148 170 3,600  Level Boston Center
Fri 08:06:28 PM 42.9297 -71.7425 32° Northeast 148 170 3,600  Level Boston Center
Fri 08:07:28 PM 42.9608 -71.7111 36° Northeast 148 170 3,600  Level Boston Center
Fri 08:08:28 PM 42.9981 -71.6822 30° Northeast 148 170 3,600 -50 Level Boston Center
Fri 08:09:28 PM 43.0314 -71.6533 32° Northeast 148 170 3,500 -300 Descending Boston Center
Fri 08:10:28 PM 43.0706 -71.6186 33° Northeast 148 170 3,000 -450 Descending Boston Center
Fri 08:11:28 PM 43.1036 -71.5869 35° Northeast 153 176 2,600 -400 Descending Boston Center
Fri 08:13:00 PM 43.1547 -71.5340 29° Northeast  Level FlightAware Approximate
Fri 08:20:00 PM 43.2000 -71.5000 29° Northeast  Level FlightAware Approximate
Fri 08:21:00 PM 43.2027 -71.5023 29° Northeast  Level Estimated
Fri 08:22:00 PM 43.2000 -71.5000 29° Northeast  Level FlightAware Approximate

Login

Don't have an account? Register now (free) for customized features, flight alerts, and more!